Time;durP1;ratioP1;P1;durP2;ratioP2;P2;SDS_P1;SDS_P2;PMS_P1;PMS_P2;Temp;Humidity;BMP_temperature;BMP_pressure;BME280_temperature;BME280_humidity;BME280_pressure;Samples;Min_cycle;Max_cycle;Signal;HPM_P1;HPM_P2
2023/10/15 00:00:19;;;;;;;9.90;7.15;;;;;;;-145.63;55.78;39114.22;5045456;28;20113;-67
2023/10/15 00:02:49;;;;;;;10.27;8.02;;;;;;;-145.63;55.76;39145.50;5044823;28;20071;-68
2023/10/15 00:05:19;;;;;;;14.63;9.00;;;;;;;-145.63;55.88;39165.06;5045195;28;20175;-69
2023/10/15 00:07:50;;;;;;;9.65;8.13;;;;;;;-145.63;55.72;39139.63;5044924;28;20021;-68
2023/10/15 00:10:20;;;;;;;10.30;7.90;;;;;;;-145.63;55.84;39143.53;5044973;28;20037;-68
2023/10/15 00:12:48;;;;;;;10.85;7.70;;;;;;;-145.63;56.01;39145.50;5044783;28;20317;-68
2023/10/15 00:15:23;;;;;;;10.98;7.40;;;;;;;-145.63;56.01;39129.84;5044946;28;20045;-68
2023/10/15 00:17:53;;;;;;;11.25;7.38;;;;;;;-145.63;55.96;39145.50;5044457;28;20044;-67
2023/10/15 00:20:20;;;;;;;14.23;8.95;;;;;;;-145.63;56.33;39153.31;5044635;28;20055;-69
2023/10/15 00:22:49;;;;;;;11.32;7.43;;;;;;;-145.63;56.28;39167.00;5044461;28;20391;-69
2023/10/15 00:25:17;;;;;;;13.55;8.55;;;;;;;-145.63;56.04;39145.50;5044767;28;20118;-68
2023/10/15 00:27:59;;;;;;;13.45;10.35;;;;;;;-145.63;56.17;39151.38;5044820;28;20041;-67
2023/10/15 00:30:32;;;;;;;8.77;7.88;;;;;;;-145.63;56.40;39112.25;5044692;28;20032;-66
2023/10/15 00:33:08;;;;;;;9.52;8.43;;;;;;;-145.63;56.17;39165.06;5044942;28;20029;-68
2023/10/15 00:35:34;;;;;;;10.18;8.63;;;;;;;-145.63;56.15;39137.69;5044791;28;20044;-66
2023/10/15 00:38:07;;;;;;;10.50;8.20;;;;;;;-145.63;56.18;39051.63;5044985;28;20033;-68
2023/10/15 00:40:41;;;;;;;9.90;7.60;;;;;;;-145.63;56.26;39122.03;5044687;28;20048;-67
2023/10/15 00:43:07;;;;;;;10.57;8.25;;;;;;;-145.63;56.23;39139.63;5044669;28;20021;-67
2023/10/15 00:45:44;;;;;;;12.88;8.38;;;;;;;-145.63;56.01;39178.75;5043289;28;20071;-68
2023/10/15 00:48:13;;;;;;;12.93;8.25;;;;;;;-145.63;56.37;39161.13;5044495;28;20056;-68
2023/10/15 00:50:47;;;;;;;10.25;7.95;;;;;;;-145.63;56.25;39157.22;5044410;28;20075;-67
2023/10/15 00:53:24;;;;;;;8.32;7.50;;;;;;;-145.63;56.24;39065.31;5044547;28;20116;-68
2023/10/15 00:56:04;;;;;;;9.43;7.90;;;;;;;-145.63;56.51;39227.63;5044375;28;20040;-66
2023/10/15 00:58:53;;;;;;;9.93;8.23;;;;;;;-145.63;56.49;39135.72;5044305;28;20033;-67
2023/10/15 01:01:22;;;;;;;9.98;7.60;;;;;;;-145.63;56.34;39159.19;5044355;28;20022;-67
2023/10/15 01:03:54;;;;;;;11.05;7.85;;;;;;;-145.63;56.74;39176.78;5043983;28;20017;-67
2023/10/15 01:11:50;;;;;;;15.48;13.40;;;;;;;-145.63;56.38;39159.19;5044091;28;20209;-66
2023/10/15 01:14:25;;;;;;;10.57;8.65;;;;;;;-145.63;56.60;39149.41;5043987;28;20068;-66
2023/10/15 01:16:51;;;;;;;11.43;7.78;;;;;;;-145.63;56.61;39133.75;5043585;28;20025;-66
2023/10/15 01:19:31;;;;;;;11.77;8.13;;;;;;;-145.63;56.80;39172.88;5043610;28;20096;-68
2023/10/15 01:21:58;;;;;;;9.95;8.63;;;;;;;-145.63;56.45;39176.78;5043255;28;20404;-69
2023/10/15 01:24:27;;;;;;;10.50;8.30;;;;;;;-145.63;56.29;39167.00;5043847;28;20029;-68
2023/10/15 01:27:08;;;;;;;12.13;9.25;;;;;;;-145.63;56.74;38977.31;5043873;28;20029;-67
2023/10/15 01:29:42;;;;;;;14.20;8.38;;;;;;;-145.63;56.45;39088.78;5043563;28;20021;-68
2023/10/15 01:32:18;;;;;;;12.48;8.68;;;;;;;-145.63;56.43;39163.09;5043763;28;20032;-69
2023/10/15 01:34:45;;;;;;;10.43;8.50;;;;;;;-145.63;56.51;39135.72;5059111;28;20290;-68
2023/10/15 01:39:51;;;;;;;11.25;7.63;;;;;;;-145.63;56.37;39153.31;5043561;28;20025;-69
2023/10/15 01:43:06;;;;;;;10.38;8.80;;;;;;;-145.63;56.59;39135.72;5043535;28;20026;-69
2023/10/15 01:45:16;;;;;;;10.73;8.02;;;;;;;-145.63;56.05;39165.06;5033090;28;20052;-68
2023/10/15 01:50:33;;;;;;;10.38;8.57;;;;;;;-145.63;56.26;39147.44;5042483;28;20229;-68
2023/10/15 01:53:04;;;;;;;11.02;8.18;;;;;;;-145.63;56.37;39165.06;5043643;28;20076;-69
2023/10/15 01:55:30;;;;;;;10.27;8.07;;;;;;;-145.63;56.23;39133.75;5043520;28;20029;-69
2023/10/15 01:58:00;;;;;;;10.27;7.53;;;;;;;-145.63;56.07;39133.75;5043309;28;20199;-69
2023/10/15 02:03:06;;;;;;;11.63;8.40;;;;;;;-145.63;55.88;39133.75;5043464;28;20060;-69
2023/10/15 02:05:41;;;;;;;13.23;8.77;;;;;;;-145.63;55.88;39137.69;5043234;28;20117;-69
2023/10/15 02:08:12;;;;;;;10.68;7.82;;;;;;;-145.63;56.07;39122.03;5043040;28;20164;-68
2023/10/15 02:10:46;;;;;;;10.50;8.47;;;;;;;-145.63;56.09;39149.41;5043341;28;20246;-69
2023/10/15 02:13:16;;;;;;;10.35;8.80;;;;;;;-145.63;56.17;39137.69;5043343;28;20494;-69
2023/10/15 02:15:44;;;;;;;13.82;8.50;;;;;;;-145.63;56.03;39063.34;5041046;28;20067;-68
2023/10/15 02:18:14;;;;;;;10.60;9.52;;;;;;;-145.63;56.05;39172.88;5043244;28;20025;-69
2023/10/15 02:21:00;;;;;;;15.60;8.50;;;;;;;-145.63;56.30;39141.59;5042969;28;20048;-68
2023/10/15 02:23:26;;;;;;;10.82;8.75;;;;;;;-145.63;56.14;39149.41;5043065;28;20021;-70
2023/10/15 02:26:09;;;;;;;10.35;8.27;;;;;;;-145.63;56.08;39131.81;5042898;28;20092;-69
2023/10/15 02:28:36;;;;;;;13.52;9.10;;;;;;;-145.63;56.11;39125.94;5043052;28;20025;-69
2023/10/15 02:33:27;;;;;;;13.77;8.43;;;;;;;-145.63;55.95;39102.47;5043135;28;20027;-69
2023/10/15 02:35:54;;;;;;;10.98;8.43;;;;;;;-145.63;56.11;39118.13;5042931;28;20208;-68
2023/10/15 02:38:25;;;;;;;11.80;8.68;;;;;;;-145.63;56.16;39168.97;5043008;28;20095;-68
2023/10/15 02:41:06;;;;;;;9.80;8.38;;;;;;;-145.63;56.16;39145.50;5042969;28;20021;-67
2023/10/15 02:43:36;;;;;;;11.17;8.30;;;;;;;-145.63;56.05;39133.75;5043058;28;20049;-69
2023/10/15 02:46:17;;;;;;;15.18;9.18;;;;;;;-145.63;55.82;39131.81;5042799;28;20767;-68
2023/10/15 02:48:44;;;;;;;11.07;7.75;;;;;;;-145.63;55.70;39127.91;5042969;28;20026;-69
2023/10/15 02:51:11;;;;;;;11.20;8.30;;;;;;;-145.63;55.68;39145.50;5042797;28;20367;-68
2023/10/15 02:53:39;;;;;;;13.82;9.13;;;;;;;-145.63;55.69;39161.13;5043175;28;20045;-68
2023/10/15 02:56:11;;;;;;;9.30;7.97;;;;;;;-145.63;55.57;39127.91;5042817;28;20381;-68
2023/10/15 02:58:38;;;;;;;;;;;;;;;-145.63;55.47;39106.38;5042243;28;20033;-68
2023/10/15 03:01:12;;;;;;;12.57;8.63;;;;;;;-145.63;55.61;39157.22;5042819;28;19976;-68
2023/10/15 03:03:41;;;;;;;14.70;8.63;;;;;;;-145.63;55.88;39096.59;5042544;28;20029;-68
2023/10/15 03:06:09;;;;;;;10.77;7.82;;;;;;;-145.63;55.51;39135.72;5042634;28;20401;-68
2023/10/15 03:08:36;;;;;;;11.65;9.65;;;;;;;-145.63;55.38;39141.59;5042884;28;20022;-68
2023/10/15 03:11:14;;;;;;;11.32;8.43;;;;;;;-145.63;55.36;39133.75;5042578;28;20017;-69
2023/10/15 03:13:55;;;;;;;11.00;8.02;;;;;;;-145.63;55.36;39165.06;5042690;28;20260;-67
2023/10/15 03:16:24;;;;;;;11.57;7.95;;;;;;;-145.63;55.60;39133.75;5042641;28;20029;-67
2023/10/15 03:18:52;;;;;;;11.80;8.57;;;;;;;-145.63;55.52;39141.59;5042185;28;20022;-68
2023/10/15 03:21:25;;;;;;;11.57;8.25;;;;;;;-145.63;55.74;39149.41;5042491;28;20022;-67
2023/10/15 03:23:52;;;;;;;8.95;7.80;;;;;;;-145.63;55.47;39108.34;5042705;28;20064;-69
2023/10/15 03:26:18;;;;;;;12.00;8.13;;;;;;;-145.63;55.57;39137.69;5043002;28;20092;-70
2023/10/15 03:28:45;;;;;;;10.57;7.72;;;;;;;-145.63;55.67;39137.69;5045594;28;20032;-69
2023/10/15 03:31:14;;;;;;;10.82;8.85;;;;;;;-145.63;55.55;39135.72;5045975;28;20027;-69
2023/10/15 03:33:50;;;;;;;17.23;9.07;;;;;;;-145.63;55.82;39147.44;5046143;28;20029;-69
2023/10/15 03:36:17;;;;;;;10.00;8.27;;;;;;;-145.63;55.35;39122.03;5045862;28;20088;-69
2023/10/15 03:38:47;;;;;;;12.35;8.30;;;;;;;-145.63;55.15;39122.03;5045895;28;20053;-68
2023/10/15 03:41:21;;;;;;;10.23;8.20;;;;;;;-145.63;55.38;39133.75;5046108;28;20028;-69
2023/10/15 03:43:48;;;;;;;10.60;8.15;;;;;;;-145.63;55.31;39106.38;5045799;28;20032;-69
2023/10/15 03:46:20;;;;;;;13.63;9.30;;;;;;;-145.63;55.34;39116.16;5045997;28;20029;-69
2023/10/15 03:48:49;;;;;;;10.73;8.43;;;;;;;-145.63;55.57;39145.50;5044420;28;20225;-69
2023/10/15 03:51:20;;;;;;;9.00;8.07;;;;;;;-145.63;55.42;39129.84;5045666;28;20032;-69
2023/10/15 03:53:49;;;;;;;9.32;8.15;;;;;;;-145.63;55.22;39102.47;5045339;28;20155;-69
2023/10/15 03:56:28;;;;;;;9.23;7.82;;;;;;;-145.63;55.37;39106.38;5045252;28;20045;-68
2023/10/15 03:58:54;;;;;;;11.18;8.10;;;;;;;-145.63;55.45;39149.41;5045263;28;20062;-69
2023/10/15 04:01:21;;;;;;;10.52;8.38;;;;;;;-145.63;55.26;39133.75;5045406;28;20197;-69
2023/10/15 04:03:47;;;;;;;16.33;12.18;;;;;;;-145.63;55.36;39106.38;5045217;28;20040;-69
2023/10/15 04:06:15;;;;;;;13.73;9.75;;;;;;;-145.63;55.10;39147.44;5045373;28;20040;-68
2023/10/15 04:08:59;;;;;;;13.38;9.02;;;;;;;-145.63;55.04;39122.03;5045168;28;20057;-69
2023/10/15 04:11:46;;;;;;;11.68;8.43;;;;;;;-145.63;55.33;39131.81;5045408;28;20061;-70
2023/10/15 04:14:32;;;;;;;10.18;7.72;;;;;;;-145.63;55.47;39125.94;5044793;28;20044;-69
2023/10/15 04:16:58;;;;;;;11.57;8.20;;;;;;;-145.63;55.61;39133.75;5043958;28;20061;-69
2023/10/15 04:19:31;;;;;;;13.05;8.85;;;;;;;-145.63;55.67;39133.75;5045093;28;20025;-70
2023/10/15 04:22:00;;;;;;;11.07;8.40;;;;;;;-145.63;55.53;39123.97;5044995;28;20093;-69
2023/10/15 04:24:44;;;;;;;11.43;8.60;;;;;;;-145.63;55.87;39123.97;5045175;28;20026;-69
2023/10/15 04:27:15;;;;;;;12.65;8.82;;;;;;;-145.63;55.77;39125.94;5044924;28;20032;-69
2023/10/15 04:29:53;;;;;;;12.30;8.88;;;;;;;-145.63;55.83;39123.97;5044721;28;20128;-68
2023/10/15 04:32:45;;;;;;;12.18;8.55;;;;;;;-145.63;56.06;39137.69;5044989;28;20275;-69
2023/10/15 04:35:16;;;;;;;;;;;;;;;-145.63;56.07;39108.34;5045600;28;20026;-68
2023/10/15 04:37:44;;;;;;;12.73;9.52;;;;;;;-145.63;56.09;39143.53;5044435;28;19944;-68
2023/10/15 04:40:11;;;;;;;13.57;8.77;;;;;;;-145.63;56.13;39125.94;5044787;28;20025;-69
2023/10/15 04:42:59;;;;;;;11.27;8.27;;;;;;;-145.63;56.33;39133.75;5044695;28;20029;-68
2023/10/15 04:48:00;;;;;;;12.73;9.02;;;;;;;-145.63;56.64;39149.41;5044319;28;20028;-68
2023/10/15 04:50:32;;;;;;;15.35;8.90;;;;;;;-145.63;56.77;39155.28;5044519;28;20213;-69
2023/10/15 04:53:13;;;;;;;13.65;9.27;;;;;;;-145.63;57.34;39122.03;5044614;28;20261;-68
2023/10/15 04:55:40;;;;;;;14.30;9.30;;;;;;;-145.63;57.03;39172.88;5044489;28;20029;-68
2023/10/15 04:58:06;;;;;;;11.77;9.25;;;;;;;-145.63;57.45;39163.09;5044337;28;20036;-68
2023/10/15 05:00:34;;;;;;;14.95;9.82;;;;;;;-145.63;57.89;39155.28;5044694;28;20021;-68
2023/10/15 05:03:01;;;;;;;12.02;9.65;;;;;;;-145.63;58.33;39110.28;5044204;28;20033;-67
2023/10/15 05:05:26;;;;;;;14.15;10.02;;;;;;;-145.63;58.54;39163.09;5044413;28;20244;-67
2023/10/15 05:07:57;;;;;;;13.07;10.20;;;;;;;-145.63;58.51;39137.69;5044307;28;20025;-67
2023/10/15 05:10:23;;;;;;;12.57;9.68;;;;;;;-145.63;58.78;39147.44;5044517;28;20021;-67
2023/10/15 05:12:51;;;;;;;15.48;10.50;;;;;;;-145.63;58.68;39157.22;5044413;28;20030;-68
2023/10/15 05:15:18;;;;;;;12.38;9.40;;;;;;;-145.63;59.00;39155.28;5044260;28;20084;-67
2023/10/15 05:17:46;;;;;;;12.43;9.90;;;;;;;-145.63;58.74;39110.28;5044048;28;20032;-67
2023/10/15 05:20:13;;;;;;;13.52;10.80;;;;;;;-145.63;59.88;39182.66;5043968;28;20025;-68
2023/10/15 05:22:42;;;;;;;17.25;11.60;;;;;;;-145.63;59.90;39167.00;5044172;28;20056;-67
2023/10/15 05:25:17;;;;;;;12.25;10.20;;;;;;;-145.63;59.93;39141.59;5043838;28;20037;-67
2023/10/15 05:27:49;;;;;;;14.63;10.52;;;;;;;-145.63;60.14;39163.09;5042936;28;20033;-67
2023/10/15 05:30:15;;;;;;;12.13;10.05;;;;;;;-145.63;59.77;39157.22;5043971;28;20360;-68
2023/10/15 05:32:45;;;;;;;13.80;10.13;;;;;;;-145.63;59.67;39165.06;5044197;28;20064;-68
2023/10/15 05:35:12;;;;;;;14.02;10.27;;;;;;;-145.63;60.32;39161.13;5043940;28;20272;-67
2023/10/15 05:37:41;;;;;;;14.93;10.15;;;;;;;-145.63;60.28;39106.38;5043900;28;20017;-67
2023/10/15 05:40:08;;;;;;;14.80;10.38;;;;;;;-145.63;60.48;39120.06;5043421;28;20021;-68
2023/10/15 05:42:35;;;;;;;15.20;10.98;;;;;;;-145.63;60.32;39149.41;5043564;28;20025;-68
2023/10/15 05:45:06;;;;;;;16.00;11.13;;;;;;;-145.63;60.48;39157.22;5043614;28;20025;-67
2023/10/15 05:47:33;;;;;;;13.68;10.15;;;;;;;-145.63;60.52;39237.41;5043713;28;20057;-67
2023/10/15 05:49:59;;;;;;;14.23;10.75;;;;;;;-145.63;60.57;39145.50;5042884;28;20025;-68
2023/10/15 05:52:25;;;;;;;17.10;11.95;;;;;;;-145.63;61.11;39168.97;5043247;28;20048;-67
2023/10/15 05:54:53;;;;;;;13.07;10.38;;;;;;;-145.63;61.60;39206.13;5043355;28;20333;-67
2023/10/15 05:57:22;;;;;;;7.90;6.47;;;;;;;-145.63;58.95;39194.38;5043495;28;20325;-66
2023/10/15 05:59:49;;;;;;;4.85;4.28;;;;;;;-145.63;57.48;39213.94;5043129;28;20021;-66
2023/10/15 06:02:14;;;;;;;10.70;4.60;;;;;;;-145.63;57.44;39206.13;5043154;28;20029;-67
2023/10/15 06:04:42;;;;;;;8.13;4.68;;;;;;;-145.63;57.66;39212.00;5043268;28;20193;-67
2023/10/15 06:07:08;;;;;;;7.25;4.20;;;;;;;-145.63;56.50;39221.78;5043197;28;20089;-69
2023/10/15 06:09:34;;;;;;;4.80;3.03;;;;;;;-145.63;55.94;39247.19;5043371;28;20358;-68
2023/10/15 06:12:00;;;;;;;8.15;3.30;;;;;;;-145.63;55.64;39235.47;5043254;28;20075;-67
2023/10/15 06:14:28;;;;;;;9.50;3.30;;;;;;;-145.63;55.03;39235.47;5043577;28;20029;-68
2023/10/15 06:16:55;;;;;;;3.95;3.08;;;;;;;-145.63;56.21;39276.53;5042950;28;20088;-66
2023/10/15 06:19:21;;;;;;;5.88;2.80;;;;;;;-145.63;55.55;39262.84;5043318;28;20057;-68
2023/10/15 06:21:47;;;;;;;6.85;3.58;;;;;;;-145.63;55.76;39243.28;5042999;28;20083;-66
2023/10/15 06:24:14;;;;;;;8.20;3.03;;;;;;;-145.63;55.50;39247.19;5043039;28;20229;-67
2023/10/15 06:26:40;;;;;;;5.78;2.65;;;;;;;-145.63;55.76;39274.56;5043185;28;20030;-67
2023/10/15 06:29:06;;;;;;;5.50;2.80;;;;;;;-145.63;54.92;39262.84;5043039;28;20205;-67
2023/10/15 06:31:32;;;;;;;6.07;2.80;;;;;;;-145.63;55.45;39227.63;5043056;28;20033;-67
2023/10/15 06:33:57;;;;;;;3.58;2.70;;;;;;;-145.63;54.78;39264.78;5042845;28;20033;-67
2023/10/15 06:36:23;;;;;;;4.88;3.30;;;;;;;-145.63;55.89;39264.78;5043076;28;20036;-68
2023/10/15 06:38:50;;;;;;;5.90;3.00;;;;;;;-145.63;55.81;39251.09;5043030;28;20029;-68
2023/10/15 06:41:16;;;;;;;8.02;3.70;;;;;;;-145.63;56.63;39268.72;5042811;28;20026;-68
2023/10/15 06:43:41;;;;;;;5.07;2.83;;;;;;;-145.63;55.77;39253.06;5042924;28;20036;-67
2023/10/15 06:46:08;;;;;;;4.70;2.95;;;;;;;-145.63;55.20;39258.94;5041749;28;20033;-68
2023/10/15 06:48:35;;;;;;;3.47;2.67;;;;;;;-145.63;54.86;39262.84;5043108;28;20025;-68
2023/10/15 06:51:10;;;;;;;4.82;2.70;;;;;;;-145.63;55.40;39301.94;5043123;28;20135;-69
2023/10/15 06:53:36;;;;;;;8.80;6.53;;;;;;;-145.63;54.42;39270.66;5043059;28;20041;-68
2023/10/15 06:56:06;;;;;;;15.13;8.35;;;;;;;-145.63;53.67;39215.91;5042708;28;20037;-68
2023/10/15 06:58:35;;;;;;;5.95;2.75;;;;;;;-145.63;54.84;39262.84;5042989;28;20352;-68
2023/10/15 07:01:07;;;;;;;5.35;2.72;;;;;;;-145.63;54.61;39286.31;5043177;28;20136;-68
2023/10/15 07:03:33;;;;;;;5.30;2.72;;;;;;;-145.63;54.39;39282.41;5046561;28;20184;-68
2023/10/15 07:05:59;;;;;;;6.93;2.50;;;;;;;-145.63;52.80;39278.47;5046441;28;20033;-67
2023/10/15 07:08:25;;;;;;;7.10;3.20;;;;;;;-145.63;54.42;39294.13;5045361;28;20320;-68
2023/10/15 07:10:50;;;;;;;3.85;2.28;;;;;;;-145.63;54.30;39284.34;5046400;28;20025;-68
2023/10/15 07:13:18;;;;;;;5.20;2.22;;;;;;;-145.63;53.91;39270.66;5046717;28;20070;-68
2023/10/15 07:15:45;;;;;;;3.00;2.10;;;;;;;-145.63;53.81;39278.47;5046346;28;20029;-68
2023/10/15 07:18:12;;;;;;;3.88;2.10;;;;;;;-145.63;53.54;39282.41;5046178;28;20106;-68
2023/10/15 07:20:39;;;;;;;4.43;2.15;;;;;;;-145.63;52.86;39301.94;5046173;28;20395;-68
2023/10/15 07:23:04;;;;;;;2.72;1.98;;;;;;;-145.63;53.13;39301.94;5045925;28;20021;-68
2023/10/15 07:25:32;;;;;;;3.42;1.70;;;;;;;-145.63;52.48;39270.66;5045200;28;20178;-68
2023/10/15 07:27:59;;;;;;;3.55;1.58;;;;;;;-145.63;52.56;39337.16;5045849;28;20028;-67
2023/10/15 07:30:26;;;;;;;3.55;2.00;;;;;;;-145.63;53.27;39290.22;5046492;28;20089;-68
2023/10/15 07:32:58;;;;;;;3.67;1.85;;;;;;;-145.63;53.84;39294.13;5045906;28;20305;-67
2023/10/15 07:35:26;;;;;;;4.97;1.85;;;;;;;-145.63;52.37;39122.03;5046114;28;20025;-68
2023/10/15 07:37:52;;;;;;;4.65;2.10;;;;;;;-145.63;52.70;39298.03;5045825;28;20083;-68
2023/10/15 07:40:25;;;;;;;5.25;3.13;;;;;;;-145.63;53.30;39301.94;5046062;28;20029;-67
2023/10/15 07:42:53;;;;;;;8.52;4.57;;;;;;;-145.63;54.05;39282.41;5045557;28;20021;-67
2023/10/15 07:45:21;;;;;;;6.50;5.60;;;;;;;-145.63;53.74;39290.22;5045862;28;20363;-68
2023/10/15 07:47:47;;;;;;;6.45;3.92;;;;;;;-145.63;53.82;39352.81;5045719;28;20025;-67
2023/10/15 07:50:23;;;;;;;8.07;2.60;;;;;;;-145.63;53.53;39311.72;5045163;28;20379;-67
2023/10/15 07:52:50;;;;;;;5.53;3.17;;;;;;;-145.63;53.18;39311.72;5045423;28;20053;-67
2023/10/15 07:55:16;;;;;;;8.80;5.85;;;;;;;-145.63;54.34;39313.69;5045665;28;20049;-68
2023/10/15 07:57:43;;;;;;;4.75;2.70;;;;;;;-145.63;54.36;39294.13;5045734;28;20167;-67
2023/10/15 08:00:22;;;;;;;5.45;2.40;;;;;;;-145.63;54.71;39311.72;5045386;28;20351;-67
2023/10/15 08:02:52;;;;;;;5.25;3.03;;;;;;;-145.63;53.08;39298.03;5045236;28;20289;-67
2023/10/15 08:05:21;;;;;;;4.82;2.78;;;;;;;-145.63;53.22;39288.25;5045582;28;20100;-67
2023/10/15 08:07:50;;;;;;;3.85;2.15;;;;;;;-145.63;52.27;39321.50;5045483;28;20028;-67
2023/10/15 08:10:17;;;;;;;4.57;2.33;;;;;;;-145.63;52.86;39309.78;5045732;28;20148;-70
2023/10/15 08:12:44;;;;;;;4.85;2.20;;;;;;;-145.63;52.30;39327.38;5044530;28;20032;-68
2023/10/15 08:15:10;;;;;;;5.28;2.35;;;;;;;-145.63;52.58;39321.50;5045175;28;20022;-68
2023/10/15 08:17:36;;;;;;;2.90;2.40;;;;;;;-145.63;52.86;39311.72;5045352;28;20312;-68
2023/10/15 08:20:04;;;;;;;2.55;2.08;;;;;;;-145.63;53.44;39319.56;5045030;28;20025;-68
2023/10/15 08:22:30;;;;;;;4.20;2.58;;;;;;;-145.63;53.66;39311.72;5044037;28;20053;-68
2023/10/15 08:24:56;;;;;;;3.78;2.17;;;;;;;-145.63;53.79;39323.47;5044974;28;20029;-68
2023/10/15 08:27:22;;;;;;;4.60;2.30;;;;;;;-145.63;53.20;39290.22;5044605;28;20029;-69
2023/10/15 08:29:47;;;;;;;3.47;2.15;;;;;;;-145.63;53.34;39284.34;5044803;28;20093;-67
2023/10/15 08:32:20;;;;;;;3.33;2.30;;;;;;;-145.63;53.08;39323.47;5044643;28;20077;-68
2023/10/15 08:34:48;;;;;;;4.60;1.88;;;;;;;-145.63;53.71;39290.22;5043672;28;20236;-67
2023/10/15 08:37:14;;;;;;;6.28;2.17;;;;;;;-145.63;53.46;39129.84;5045096;28;20146;-68
2023/10/15 08:39:40;;;;;;;4.88;2.10;;;;;;;-145.63;53.65;39301.94;5044971;28;20123;-68
2023/10/15 08:42:13;;;;;;;6.78;2.33;;;;;;;-145.63;53.54;39309.78;5044513;28;20021;-68
2023/10/15 08:44:42;;;;;;;4.32;2.15;;;;;;;-145.63;53.00;39184.59;5044594;28;20026;-68
2023/10/15 08:47:13;;;;;;;6.38;2.38;;;;;;;-145.63;53.73;39292.19;5044516;28;20061;-66
2023/10/15 08:49:51;;;;;;;7.82;3.47;;;;;;;-145.63;53.27;39315.66;5044774;28;20317;-67
2023/10/15 08:52:17;;;;;;;7.38;3.00;;;;;;;-145.63;54.00;39305.88;5044458;28;20048;-68
2023/10/15 08:54:45;;;;;;;3.90;2.25;;;;;;;-145.63;54.66;39301.94;5044722;28;20102;-68
2023/10/15 08:57:11;;;;;;;4.35;2.40;;;;;;;-145.63;53.47;39311.72;5044639;28;20353;-69
2023/10/15 08:59:38;;;;;;;3.13;2.42;;;;;;;-145.63;53.86;39294.13;5044581;28;20156;-68
2023/10/15 09:02:08;;;;;;;5.65;2.60;;;;;;;-145.63;52.38;39344.97;5043080;28;20152;-67
2023/10/15 09:04:34;;;;;;;7.17;2.80;;;;;;;-145.63;53.58;39276.53;5044474;28;20025;-68
2023/10/15 09:07:04;;;;;;;5.38;3.10;;;;;;;-145.63;54.38;39270.66;5044375;28;20301;-68
2023/10/15 09:09:30;;;;;;;13.15;11.40;;;;;;;-145.63;55.01;39305.88;5044465;28;20237;-67
2023/10/15 09:11:56;;;;;;;7.95;4.90;;;;;;;-145.63;54.21;39284.34;5044216;28;20063;-67
2023/10/15 09:14:45;;;;;;;6.97;3.42;;;;;;;-145.63;54.29;39305.88;5044170;28;20026;-67
2023/10/15 09:17:12;;;;;;;4.70;2.53;;;;;;;-145.63;54.90;39292.19;5043991;28;20171;-68
2023/10/15 09:19:39;;;;;;;8.80;4.82;;;;;;;-145.63;54.85;39337.16;5044039;28;20175;-69
2023/10/15 09:22:06;;;;;;;4.78;2.78;;;;;;;-145.63;54.65;39274.56;5043871;28;20025;-68
2023/10/15 09:24:31;;;;;;;9.55;4.05;;;;;;;-145.63;54.24;39305.88;5042485;28;20032;-68
2023/10/15 09:26:58;;;;;;;13.45;3.33;;;;;;;-145.63;53.37;39280.44;5043545;28;20029;-69
2023/10/15 09:29:24;;;;;;;34.70;27.75;;;;;;;-145.63;53.79;39309.78;5044084;28;20029;-69
2023/10/15 09:31:56;;;;;;;6.20;3.97;;;;;;;-145.63;53.48;39286.31;5043727;28;20101;-68
2023/10/15 09:34:22;;;;;;;4.35;2.88;;;;;;;-145.63;54.40;39288.25;5043901;28;20411;-68
2023/10/15 09:36:49;;;;;;;5.55;2.97;;;;;;;-145.63;54.03;39278.47;5043624;28;20038;-67
2023/10/15 09:39:15;;;;;;;7.50;3.25;;;;;;;-145.63;54.39;39282.41;5043562;28;20225;-66
2023/10/15 09:41:41;;;;;;;7.68;2.80;;;;;;;-145.63;53.85;39333.25;5043670;28;20032;-67
2023/10/15 09:44:15;;;;;;;6.68;2.60;;;;;;;-145.63;53.57;39315.66;5043585;28;20092;-68
2023/10/15 09:46:45;;;;;;;5.45;2.45;;;;;;;-145.63;54.03;39270.66;5025856;28;20033;-68
2023/10/15 09:49:12;;;;;;;7.90;3.10;;;;;;;-145.63;54.14;39298.03;5042533;28;20028;-67
2023/10/15 09:51:40;;;;;;;7.00;2.58;;;;;;;-145.63;53.29;39286.31;5042148;28;20032;-67
2023/10/15 09:54:14;;;;;;;7.45;3.08;;;;;;;-145.63;52.82;39282.41;5043394;28;20310;-67
2023/10/15 09:56:41;;;;;;;4.63;2.58;;;;;;;-145.63;53.21;39311.72;5043428;28;20069;-67
2023/10/15 09:59:10;;;;;;;6.13;3.05;;;;;;;-145.63;52.24;39305.88;5043534;28;20244;-68
2023/10/15 10:01:40;;;;;;;7.97;2.88;;;;;;;-145.63;52.02;39309.78;5043481;28;20034;-67
2023/10/15 10:04:40;;;;;;;5.57;3.25;;;;;;;-145.63;52.04;39262.84;5025265;28;20052;-66
2023/10/15 10:07:36;;;;;;;4.47;2.58;;;;;;;-145.63;52.63;39247.19;5043480;28;20056;-67
2023/10/15 10:10:34;;;;;;;5.53;3.03;;;;;;;-145.63;52.40;39256.97;5043420;28;20088;-67
2023/10/15 10:13:32;;;;;;;6.50;2.60;;;;;;;-145.63;51.43;39307.81;5043275;28;20044;-67
2023/10/15 10:15:59;;;;;;;5.63;2.90;;;;;;;-145.63;52.39;39215.91;5034184;28;20096;-67
2023/10/15 10:18:27;;;;;;;7.07;3.25;;;;;;;-145.63;52.67;39262.84;5043431;28;20092;-67
2023/10/15 10:20:55;;;;;;;7.03;2.80;;;;;;;-145.63;52.36;39286.31;5043100;28;20190;-67
2023/10/15 10:23:22;;;;;;;6.90;3.10;;;;;;;-145.63;52.18;39161.13;5042979;28;20025;-68
2023/10/15 10:25:58;;;;;;;6.18;3.13;;;;;;;-145.63;51.42;39235.47;5043191;28;20093;-69
2023/10/15 10:28:25;;;;;;;8.75;3.95;;;;;;;-145.63;52.13;39274.56;5043132;28;20032;-67
2023/10/15 10:30:52;;;;;;;10.85;6.05;;;;;;;-145.63;51.78;39255.00;5041855;28;20162;-68
2023/10/15 10:33:46;;;;;;;10.30;3.83;;;;;;;-145.63;52.57;39251.09;5043026;28;20085;-67
2023/10/15 10:36:20;;;;;;;8.75;3.17;;;;;;;-145.63;51.25;39253.06;5043760;28;20557;-68
2023/10/15 10:39:14;;;;;;;4.65;2.63;;;;;;;-145.63;51.22;39255.00;5047118;28;20317;-68
2023/10/15 10:41:45;;;;;;;11.55;8.90;;;;;;;-145.63;51.46;39233.50;5042541;28;20037;-68
2023/10/15 10:44:23;;;;;;;10.88;6.45;;;;;;;-145.63;51.75;39266.75;5045619;28;20276;-67
2023/10/15 10:46:52;;;;;;;8.93;3.55;;;;;;;-145.63;51.85;39309.78;5046834;28;20025;-68
2023/10/15 10:49:28;;;;;;;8.57;3.90;;;;;;;-145.63;51.95;39266.75;5047139;28;20029;-66
2023/10/15 10:52:23;;;;;;;7.05;2.80;;;;;;;-145.63;52.37;39270.66;5046640;28;20041;-67
2023/10/15 10:54:49;;;;;;;6.90;2.97;;;;;;;-145.63;51.50;39348.88;5046870;28;20040;-67
2023/10/15 10:57:18;;;;;;;8.32;2.90;;;;;;;-145.63;52.01;39272.63;5046864;28;20093;-68
2023/10/15 10:59:44;;;;;;;6.97;2.72;;;;;;;-145.63;51.72;39301.94;5045775;28;20201;-68
2023/10/15 11:02:11;;;;;;;8.27;3.15;;;;;;;-145.63;50.03;39260.88;5046422;28;20029;-66
2023/10/15 11:04:39;;;;;;;6.43;2.65;;;;;;;-145.63;49.86;39253.06;5046611;28;20061;-67
2023/10/15 11:07:05;;;;;;;9.15;3.00;;;;;;;-145.63;49.74;39276.53;5046640;28;20032;-68
2023/10/15 11:09:31;;;;;;;11.00;3.25;;;;;;;-145.63;50.47;39313.69;5046612;28;20025;-68
2023/10/15 11:11:57;;;;;;;8.23;3.00;;;;;;;-145.63;50.39;39305.88;5046413;28;20029;-67
2023/10/15 11:14:25;;;;;;;7.80;2.00;;;;;;;-145.63;49.69;39290.22;5045322;28;20037;-68
2023/10/15 11:16:51;;;;;;;6.03;2.50;;;;;;;-145.63;49.65;39266.75;5046237;28;20025;-67
2023/10/15 11:19:22;;;;;;;7.22;2.83;;;;;;;-145.63;49.91;39311.72;5046373;28;20033;-67
2023/10/15 11:21:50;;;;;;;12.30;5.90;;;;;;;-145.63;49.33;39251.09;5046288;28;20052;-67
2023/10/15 11:24:17;;;;;;;7.28;2.65;;;;;;;-145.63;49.97;39272.63;5046136;28;20237;-68
2023/10/15 11:26:44;;;;;;;7.80;2.55;;;;;;;-145.63;48.94;39176.78;5045966;28;20041;-67
2023/10/15 11:29:12;;;;;;;5.13;2.70;;;;;;;-145.63;47.97;38621.41;5044618;28;20039;-66
2023/10/15 11:31:46;;;;;;;4.70;2.60;;;;;;;-145.63;47.50;39286.31;5045987;28;20029;-68
2023/10/15 11:34:17;;;;;;;5.43;2.42;;;;;;;-145.63;47.54;39235.47;5045922;28;20337;-67
2023/10/15 11:36:48;;;;;;;6.50;3.22;;;;;;;-145.63;48.09;39212.00;5045769;28;20372;-67
2023/10/15 11:39:18;;;;;;;9.83;2.70;;;;;;;-145.63;47.05;39266.75;5045883;28;20025;-67
2023/10/15 11:41:50;;;;;;;7.90;2.80;;;;;;;-145.63;47.94;39255.00;5045763;28;20017;-68
2023/10/15 11:44:25;;;;;;;7.63;2.60;;;;;;;-145.63;48.39;39286.31;5044822;28;20136;-67
2023/10/15 11:46:55;;;;;;;7.43;2.67;;;;;;;-145.63;47.33;39280.44;5045617;28;20262;-67